Albuquerque, NM (87110)

12:14 PM MDT on March 30, 2017 (GMT -0600)
| | Change Station
Active Advisory: Fire Weather Watch

Elev -9999 ft 0.00 °N, 0.00 °E | Updated 10 minutes ago

Partly Cloudy
Partly Cloudy
°F
Feels Like °F
N
Wind Variable Wind from North
Gusts mph

Today
High -- | Low -- °F
--% Chance of Precip.
Yesterday
High -- | Low -- °F
Precip. -- in
Pressure 29.84 in
Visibility 10.0 miles
Clouds Few 20000 ft
Mostly Cloudy 27000 ft
Dew Point Not available.
Humidity Not available.
Rainfall --
Snow Depth Not available.
6:55 AM 7:26 PM
Waxing Crescent, 10% visible
METAR KABQ 301752Z VRB06KT 10SM FEW200 BKN270 13/M04 A2996 RMK AO2 SLP103 T01331039 10133 20028 58017
Pressure 29.84 in
Visibility 10.0 miles
Clouds Few 20000 ft
Mostly Cloudy 27000 ft
Dew Point Not available.
Humidity Not available.
Rainfall --
Snow Depth Not available.
6:55 AM 7:26 PM
Waxing Crescent, 10% visible
METAR KABQ 301752Z VRB06KT 10SM FEW200 BKN270 13/M04 A2996 RMK AO2 SLP103 T01331039 10133 20028 58017

Get Your Daily Forecast Email!

Thanks for signing up!

Be on the lookout for a verification email in your inbox.

You'll start receiving severe weather alerts in your inbox..

×

10-Day Weather Forecast

Almanac

Astronomy

Mar. 30, 2017 Rise Set
Actual Time
Civil Twilight
Nautical Twilight
Astronomical Twilight
Moon
Length of Visible Light
Length of Day
Tomorrow will be .
, % of the Moon is Illuminated

Today's Extremes

State Highs State Lows

Community

WunderPhotos

Upload Photos

1,962,540 photos uploaded!

WunderBlog® & News

Nearby

Air Quality

  Air Quality AQ Index Pollutant
Not available.

Snow Depth

Station Depth Elevation

Earthquake Activity

City Distance Mag. Time & Date
Minimum magnitude displayed is 2.5.

Earthquake Activity

City Distance Mag. Time & Date
Minimum magnitude displayed is 2.5.

Coastal Water Temperatures

Place Temperature

Stations

Nearby Weather Stations

Station Location Temp. Windchill Dew Point Humidity Wind Precip. Elev Updated Type
                   

Watches & Warnings

Fire Weather Watch
Issued: 6:34 AM MDT Mar. 30, 2017 – National Weather Service

... Fire Weather Watch remains in effect from Friday afternoon
through Friday evening...

* area and timing... middle Rio Grande Valley and east Central
Plains of New Mexico Friday afternoon through early evening.

* 20 foot winds... 20 to 25 mph with occasional gusts of 35 to 40
mph. Stronger winds of 25 to 35 mph with gusts as high as 50
mph will be possible in portions of the east Central Plains.

* Relative humidity... 12 to 15 percent by late afternoon.

* Impacts... any fires that develop will likely spread rapidly.
Outdoor burning is not recommended.

Precautionary/preparedness actions...

Please advise the appropriate officials or fire crews in the
field of this Fire Weather Watch.